Time;durP1;ratioP1;P1;durP2;ratioP2;P2;SDS_P1;SDS_P2;PMS_P1;PMS_P2;Temp;Humidity;BMP_temperature;BMP_pressure;BME280_temperature;BME280_humidity;BME280_pressure;Samples;Min_cycle;Max_cycle;Signal;HPM_P1;HPM_P2
2021/07/18 00:01:56;;;;;;;29.45;23.83;;;;;;;19.29;100.00;99892.44;5114080;28;20199;-74
2021/07/18 00:04:23;;;;;;;31.33;23.77;;;;;;;19.35;100.00;99892.69;5113050;28;20230;-73
2021/07/18 00:06:49;;;;;;;27.42;23.80;;;;;;;19.20;100.00;99893.22;5114347;28;20499;-74
2021/07/18 00:09:17;;;;;;;28.45;22.70;;;;;;;19.28;100.00;99883.34;5113505;28;20223;-74
2021/07/18 00:11:44;;;;;;;27.92;21.90;;;;;;;19.17;100.00;99886.19;5117963;28;20238;-74
2021/07/18 00:14:11;;;;;;;29.55;22.17;;;;;;;19.23;100.00;99892.97;5118184;28;20269;-74
2021/07/18 00:16:38;;;;;;;25.48;20.77;;;;;;;19.31;100.00;99887.66;5117962;28;20692;-74
2021/07/18 00:19:05;;;;;;;28.27;21.13;;;;;;;19.06;100.00;99887.16;5117904;28;20290;-74
2021/07/18 00:21:32;;;;;;;25.45;20.73;;;;;;;19.05;100.00;99890.00;5117813;28;20186;-74
2021/07/18 00:23:59;;;;;;;27.58;21.20;;;;;;;18.89;100.00;99901.41;5117747;28;20212;-74
2021/07/18 00:26:27;;;;;;;26.50;21.77;;;;;;;18.77;100.00;99889.72;5117969;28;20212;-73
2021/07/18 00:28:54;;;;;;;24.98;19.63;;;;;;;18.79;100.00;99887.75;5117638;28;20193;-74
2021/07/18 00:31:20;;;;;;;24.92;20.88;;;;;;;18.96;100.00;99886.22;5117774;28;20203;-74
2021/07/18 00:33:47;;;;;;;23.92;19.15;;;;;;;19.02;100.00;99877.50;5117654;28;20522;-73
2021/07/18 00:36:13;;;;;;;23.23;18.75;;;;;;;19.11;100.00;99889.47;5117638;28;20635;-74
2021/07/18 00:38:40;;;;;;;23.67;19.88;;;;;;;18.96;100.00;99887.09;5117900;28;20619;-73
2021/07/18 00:41:07;;;;;;;31.20;25.73;;;;;;;18.98;100.00;99884.22;5117523;28;20183;-74
2021/07/18 00:43:35;;;;;;;22.98;19.92;;;;;;;19.12;100.00;99896.66;5117818;28;20202;-74
2021/07/18 00:46:02;;;;;;;22.27;17.83;;;;;;;18.89;100.00;99895.97;5117608;28;20190;-74
2021/07/18 00:48:29;;;;;;;24.10;19.23;;;;;;;18.71;100.00;99896.53;5117092;28;20293;-74
2021/07/18 00:50:56;;;;;;;31.30;26.25;;;;;;;18.71;100.00;99899.28;5117360;28;20631;-73
2021/07/18 00:53:23;;;;;;;25.90;21.17;;;;;;;18.54;100.00;99899.84;5117050;28;20197;-73
2021/07/18 00:55:52;;;;;;;19.83;17.30;;;;;;;18.65;100.00;99894.34;5117330;28;20284;-74
2021/07/18 00:58:19;;;;;;;20.05;16.35;;;;;;;18.78;100.00;99896.03;5116831;28;20194;-74
2021/07/18 01:00:47;;;;;;;16.45;13.43;;;;;;;18.52;100.00;99894.56;5117452;28;20205;-73
2021/07/18 01:03:14;;;;;;;17.35;14.25;;;;;;;18.60;100.00;99890.31;5116658;28;20323;-75
2021/07/18 01:05:41;;;;;;;18.77;14.02;;;;;;;18.78;100.00;99887.88;5116075;28;20281;-73
2021/07/18 01:08:08;;;;;;;15.43;13.77;;;;;;;18.90;99.06;99892.22;5115340;28;20273;-74
2021/07/18 01:10:34;;;;;;;16.70;13.88;;;;;;;18.77;99.56;99889.72;5115773;28;20206;-73
2021/07/18 01:13:01;;;;;;;17.35;14.02;;;;;;;18.75;100.00;99883.50;5115611;28;20182;-73
2021/07/18 01:15:28;;;;;;;15.98;11.35;;;;;;;18.58;99.84;99890.41;5115637;28;20519;-74
2021/07/18 01:17:56;;;;;;;12.55;11.25;;;;;;;18.50;100.00;99882.91;5115826;28;20206;-74
2021/07/18 01:20:23;;;;;;;14.52;12.15;;;;;;;18.54;100.00;99884.38;5115199;28;20277;-73
2021/07/18 01:22:51;;;;;;;15.93;13.98;;;;;;;18.52;100.00;99889.09;5115589;28;20193;-73
2021/07/18 01:25:18;;;;;;;12.90;11.60;;;;;;;18.69;100.00;99890.34;5115262;28;20236;-74
2021/07/18 01:27:45;;;;;;;14.40;12.90;;;;;;;18.66;98.51;99893.34;5115687;28;20187;-74
2021/07/18 01:30:14;;;;;;;18.95;12.88;;;;;;;18.52;99.32;99897.28;5116100;28;20210;-74
2021/07/18 01:32:42;;;;;;;18.25;13.68;;;;;;;18.35;100.00;99897.88;5115649;28;20186;-74
2021/07/18 01:35:10;;;;;;;18.10;12.90;;;;;;;18.39;100.00;99893.88;5115672;28;20261;-74
2021/07/18 01:37:36;;;;;;;14.02;12.18;;;;;;;18.47;100.00;99891.34;5115461;28;20692;-72
2021/07/18 01:40:06;;;;;;;17.50;12.85;;;;;;;18.50;100.00;99890.25;5115553;28;20189;-73
2021/07/18 01:42:32;;;;;;;12.68;11.27;;;;;;;18.41;99.78;99891.91;5115400;28;20273;-74
2021/07/18 01:44:59;;;;;;;17.40;13.05;;;;;;;18.23;100.00;99890.75;5114886;28;20229;-74
2021/07/18 01:47:26;;;;;;;14.98;12.82;;;;;;;18.23;100.00;99890.75;5115146;28;20193;-74
2021/07/18 01:49:52;;;;;;;19.13;13.60;;;;;;;18.33;100.00;99888.97;5115202;28;20288;-73
2021/07/18 01:52:19;;;;;;;16.15;14.45;;;;;;;18.37;100.00;99890.44;5115257;28;20181;-74
2021/07/18 01:54:46;;;;;;;14.77;13.18;;;;;;;18.26;100.00;99890.47;5115522;28;20185;-73
2021/07/18 01:57:15;;;;;;;15.30;13.70;;;;;;;18.09;100.00;99892.78;5114914;28;20201;-74
2021/07/18 01:59:41;;;;;;;14.45;11.80;;;;;;;17.91;100.00;99883.47;5102356;28;20181;-74
2021/07/18 02:02:08;;;;;;;14.20;11.55;;;;;;;17.89;100.00;99885.44;5115192;28;20197;-74
2021/07/18 02:04:35;;;;;;;12.40;11.00;;;;;;;17.95;100.00;99884.91;5076789;28;1094436;-72
2021/07/18 02:07:03;;;;;;;16.92;12.23;;;;;;;17.78;100.00;99882.72;5115541;28;20197;-74
2021/07/18 02:09:29;;;;;;;12.43;11.10;;;;;;;17.43;100.00;99889.22;5115925;28;20180;-74
2021/07/18 02:11:56;;;;;;;17.70;10.90;;;;;;;17.38;100.00;99896.91;5115477;28;20292;-73
2021/07/18 02:14:24;;;;;;;11.52;9.13;;;;;;;17.45;100.00;99890.81;5115901;28;20270;-73
2021/07/18 02:16:52;;;;;;;17.23;10.32;;;;;;;17.41;100.00;99891.19;5115927;28;20644;-74
2021/07/18 02:19:19;;;;;;;10.88;9.70;;;;;;;17.27;100.00;99893.19;5116234;28;20187;-74
2021/07/18 02:21:46;;;;;;;15.55;10.35;;;;;;;17.34;100.00;99887.25;5115951;28;20812;-73
2021/07/18 02:24:12;;;;;;;13.13;11.30;;;;;;;17.36;100.00;99883.41;5115625;28;20700;-74
2021/07/18 02:26:39;;;;;;;14.95;10.00;;;;;;;17.39;100.00;99882.28;5114940;28;20252;-74
2021/07/18 02:29:06;;;;;;;11.18;9.35;;;;;;;17.36;100.00;99882.56;5115516;28;20194;-74
2021/07/18 02:31:34;;;;;;;10.35;9.10;;;;;;;17.44;100.00;99886.38;5115400;28;20200;-74
2021/07/18 02:34:00;;;;;;;9.20;8.15;;;;;;;17.29;100.00;99883.03;5114383;28;20177;-74
2021/07/18 02:36:27;;;;;;;10.30;9.20;;;;;;;17.30;100.00;99887.50;5115240;28;20274;-74
2021/07/18 02:38:54;;;;;;;10.90;9.18;;;;;;;17.24;100.00;99890.72;5115414;28;20206;-74
2021/07/18 02:41:21;;;;;;;10.35;8.85;;;;;;;17.33;100.00;99877.38;5115045;28;20186;-74
2021/07/18 02:43:48;;;;;;;10.88;9.65;;;;;;;17.19;100.00;99882.06;5115353;28;20290;-74
2021/07/18 02:46:14;;;;;;;16.42;10.02;;;;;;;17.16;100.00;99887.75;5115240;28;20181;-74
2021/07/18 02:48:42;;;;;;;10.07;8.82;;;;;;;17.12;100.00;99880.84;5115488;28;20605;-72
2021/07/18 02:51:09;;;;;;;9.35;8.45;;;;;;;17.11;100.00;99881.81;5115235;28;20187;-74
2021/07/18 02:53:36;;;;;;;10.23;9.05;;;;;;;17.09;100.00;99876.53;5114436;28;20199;-74
2021/07/18 02:56:02;;;;;;;10.73;8.70;;;;;;;17.20;100.00;99886.50;5114679;28;20184;-74
2021/07/18 02:58:29;;;;;;;21.23;10.80;;;;;;;17.33;100.00;99882.81;5115033;28;20197;-74
2021/07/18 03:00:55;;;;;;;10.73;9.65;;;;;;;17.31;100.00;99880.22;5114798;28;20183;-73
2021/07/18 03:03:22;;;;;;;11.70;7.80;;;;;;;17.34;100.00;99877.22;5115084;28;20238;-74
2021/07/18 03:05:50;;;;;;;11.85;8.68;;;;;;;17.09;100.00;99870.19;5114986;28;20295;-72
2021/07/18 03:08:16;;;;;;;11.18;8.30;;;;;;;16.91;100.00;99869.81;5114927;28;20191;-72
2021/07/18 03:10:43;;;;;;;9.38;7.35;;;;;;;16.85;100.00;99867.63;5114437;28;20203;-73
2021/07/18 03:13:10;;;;;;;10.45;7.38;;;;;;;17.01;100.00;99872.69;5114412;28;20187;-74
2021/07/18 03:15:36;;;;;;;11.93;8.43;;;;;;;17.06;100.00;99867.72;5114751;28;20195;-74
2021/07/18 03:18:06;;;;;;;9.40;7.70;;;;;;;16.91;100.00;99872.53;5114680;28;20287;-74
2021/07/18 03:20:33;;;;;;;8.55;7.43;;;;;;;16.81;100.00;99864.25;5114460;28;20517;-73
2021/07/18 03:23:01;;;;;;;9.90;7.07;;;;;;;16.65;100.00;99870.03;5114995;28;20183;-74
2021/07/18 03:25:28;;;;;;;13.60;8.88;;;;;;;16.68;100.00;99868.91;5113545;28;20310;-74
2021/07/18 03:27:55;;;;;;;8.25;6.85;;;;;;;16.70;100.00;99858.78;5113964;28;20187;-74
2021/07/18 03:30:22;;;;;;;13.52;8.13;;;;;;;16.53;100.00;99853.81;5114141;28;20693;-74
2021/07/18 03:32:49;;;;;;;11.20;6.75;;;;;;;16.58;100.00;99857.06;5114545;28;20206;-74
2021/07/18 03:35:16;;;;;;;11.95;6.97;;;;;;;16.65;100.00;99861.00;5114008;28;20190;-74
2021/07/18 03:37:44;;;;;;;10.57;7.45;;;;;;;16.75;100.00;99862.00;5113963;28;20644;-74
2021/07/18 03:40:14;;;;;;;13.20;7.05;;;;;;;16.56;100.00;99856.31;5114054;28;20209;-74
2021/07/18 03:42:41;;;;;;;12.25;7.90;;;;;;;16.53;100.00;99851.09;5114153;28;20187;-73
2021/07/18 03:45:10;;;;;;;8.98;6.72;;;;;;;16.53;100.00;99853.81;5113988;28;20207;-73
2021/07/18 03:47:36;;;;;;;8.02;6.60;;;;;;;16.32;100.00;99857.22;5114013;28;20199;-73
2021/07/18 03:50:04;;;;;;;10.55;6.53;;;;;;;16.38;100.00;99854.03;5113940;28;20179;-73
2021/07/18 03:52:31;;;;;;;9.63;6.90;;;;;;;16.34;100.00;99857.13;5114102;28;20187;-74
2021/07/18 03:54:57;;;;;;;8.63;6.53;;;;;;;16.54;100.00;99852.84;5113625;28;20198;-73
2021/07/18 03:57:25;;;;;;;8.43;6.00;;;;;;;16.63;100.00;99854.81;5114120;28;20187;-73
2021/07/18 03:59:52;;;;;;;7.20;6.50;;;;;;;16.56;100.00;99862.59;5114146;28;20180;-73
2021/07/18 04:02:18;;;;;;;6.95;5.75;;;;;;;16.64;100.00;99865.59;5114176;28;20213;-74
2021/07/18 04:04:45;;;;;;;8.07;5.85;;;;;;;16.38;100.00;99864.91;5113772;28;20271;-73
2021/07/18 04:07:11;;;;;;;7.30;6.30;;;;;;;16.38;100.00;99856.75;5114065;28;20183;-74
2021/07/18 04:09:38;;;;;;;7.32;5.65;;;;;;;16.33;100.00;99860.84;5114050;28;20649;-74
2021/07/18 04:12:05;;;;;;;7.10;6.15;;;;;;;16.20;100.00;99866.34;5113688;28;20534;-74
2021/07/18 04:14:34;;;;;;;6.10;5.53;;;;;;;16.13;100.00;99862.38;5113704;28;20176;-73
2021/07/18 04:17:00;;;;;;;7.38;5.50;;;;;;;16.05;100.00;99871.97;5113511;28;20202;-74
2021/07/18 04:19:27;;;;;;;8.55;6.32;;;;;;;16.11;100.00;99869.78;5113897;28;20198;-74
2021/07/18 04:21:53;;;;;;;7.57;6.60;;;;;;;16.23;100.00;99876.97;5114327;28;20681;-73
2021/07/18 04:24:20;;;;;;;6.90;5.40;;;;;;;16.16;100.00;99871.13;5113526;28;20290;-74
2021/07/18 04:26:47;;;;;;;7.35;6.22;;;;;;;16.24;100.00;99871.41;5113622;28;20283;-74
2021/07/18 04:29:13;;;;;;;6.85;5.43;;;;;;;16.39;100.00;99866.66;5113681;28;20596;-74
2021/07/18 04:31:41;;;;;;;12.95;5.80;;;;;;;16.60;100.00;99874.09;5114096;28;20648;-74
2021/07/18 04:34:08;;;;;;;8.50;6.15;;;;;;;16.45;100.00;99873.44;5113946;28;20279;-73
2021/07/18 04:36:35;;;;;;;9.25;6.00;;;;;;;16.37;100.00;99874.06;5113523;28;20275;-74
2021/07/18 04:39:01;;;;;;;5.40;4.43;;;;;;;16.34;100.00;99879.72;5113884;28;20290;-73
2021/07/18 04:41:29;;;;;;;6.13;4.65;;;;;;;16.42;100.00;99882.72;5113983;28;20190;-73
2021/07/18 04:43:56;;;;;;;6.53;4.47;;;;;;;16.52;100.00;99887.41;5113589;28;20214;-73
2021/07/18 04:46:22;;;;;;;7.38;4.78;;;;;;;16.52;100.00;99884.72;5113359;28;20261;-74
2021/07/18 04:48:50;;;;;;;4.88;4.45;;;;;;;16.29;100.00;99873.78;5113361;28;20187;-74
2021/07/18 04:51:17;;;;;;;4.80;4.28;;;;;;;16.21;100.00;99889.78;5113293;28;20196;-72
2021/07/18 04:53:44;;;;;;;5.30;4.80;;;;;;;16.15;100.00;99887.56;5113609;28;20183;-73
2021/07/18 04:56:10;;;;;;;7.45;5.00;;;;;;;16.24;100.00;99895.00;5114523;28;20182;-74
2021/07/18 04:58:37;;;;;;;16.05;6.32;;;;;;;16.60;100.00;99891.28;5117269;28;20618;-73
2021/07/18 05:01:05;;;;;;;9.27;5.57;;;;;;;16.82;100.00;99890.50;5117173;28;20183;-73
2021/07/18 05:03:31;;;;;;;6.53;4.60;;;;;;;16.95;99.85;99875.91;5116777;28;20235;-73
2021/07/18 05:05:59;;;;;;;7.07;5.20;;;;;;;17.04;99.66;99886.03;5116719;28;20299;-73
2021/07/18 05:08:26;;;;;;;9.68;4.60;;;;;;;17.39;98.32;99883.19;5113785;27;20277;-74
2021/07/18 05:10:53;;;;;;;8.75;5.18;;;;;;;17.83;94.61;99888.66;5135621;27;20619;-74
2021/07/18 05:13:20;;;;;;;7.55;5.38;;;;;;;18.02;92.17;99886.13;5131868;27;20198;-73
2021/07/18 05:15:46;;;;;;;5.03;4.45;;;;;;;17.98;90.56;99890.13;5117284;28;20184;-73
2021/07/18 05:18:15;;;;;;;8.20;5.32;;;;;;;17.65;92.64;99886.44;5117127;28;20196;-74
2021/07/18 05:20:42;;;;;;;6.30;4.90;;;;;;;17.59;93.69;99895.16;5117005;28;20695;-73
2021/07/18 05:23:11;;;;;;;7.50;5.20;;;;;;;17.86;92.97;99896.56;5116821;28;20642;-73
2021/07/18 05:25:39;;;;;;;7.38;5.28;;;;;;;17.75;92.97;99894.75;5116821;28;20633;-74
2021/07/18 05:28:06;;;;;;;6.63;5.28;;;;;;;17.79;93.07;99892.59;5116805;28;20186;-73
2021/07/18 05:30:33;;;;;;;8.85;5.50;;;;;;;17.82;92.83;99897.81;5116732;28;20236;-73
2021/07/18 05:32:59;;;;;;;9.73;4.72;;;;;;;17.81;92.97;99904.25;5116326;28;20185;-74
2021/07/18 05:35:26;;;;;;;6.22;4.78;;;;;;;17.88;92.61;99908.22;5116190;28;20189;-74
2021/07/18 05:37:53;;;;;;;6.60;4.50;;;;;;;18.04;91.59;99907.78;5115928;28;20201;-75
2021/07/18 05:40:20;;;;;;;5.45;4.72;;;;;;;18.23;89.50;99907.13;5116014;28;20627;-75
2021/07/18 05:42:47;;;;;;;5.47;4.35;;;;;;;18.44;88.03;99904.41;5115997;28;20201;-75
2021/07/18 05:45:14;;;;;;;6.30;3.65;;;;;;;18.64;84.54;99902.69;5116194;28;20574;-75
2021/07/18 05:47:41;;;;;;;6.38;3.90;;;;;;;18.71;83.48;99904.72;5115621;28;20264;-75
2021/07/18 05:50:09;;;;;;;6.55;3.00;;;;;;;18.81;82.68;99899.34;5116193;28;20201;-75
2021/07/18 05:52:36;;;;;;;6.10;3.97;;;;;;;18.94;82.04;99902.72;5115920;28;20667;-74
2021/07/18 05:55:03;;;;;;;4.03;3.58;;;;;;;19.05;81.70;99903.66;5115842;28;20186;-75
2021/07/18 05:57:31;;;;;;;4.95;3.60;;;;;;;19.38;79.46;99902.50;5115123;28;20233;-75
2021/07/18 05:59:58;;;;;;;7.72;3.20;;;;;;;19.52;78.14;99904.00;5115676;28;20195;-75
2021/07/18 06:02:25;;;;;;;5.35;3.10;;;;;;;19.48;77.64;99897.94;5114863;28;20198;-75
2021/07/18 06:04:51;;;;;;;4.88;3.00;;;;;;;19.40;77.85;99905.09;5115051;28;20183;-74
2021/07/18 06:07:18;;;;;;;4.90;2.72;;;;;;;19.47;77.11;99908.97;5114837;28;20195;-74
2021/07/18 06:09:44;;;;;;;4.47;3.20;;;;;;;19.56;77.82;99916.38;5115373;28;20198;-74
2021/07/18 06:12:11;;;;;;;5.30;3.20;;;;;;;19.60;77.51;99920.53;5114923;28;20537;-74
2021/07/18 06:14:39;;;;;;;5.05;2.85;;;;;;;19.70;76.04;99916.00;5115031;28;20188;-74
2021/07/18 06:17:06;;;;;;;3.90;2.90;;;;;;;19.89;74.90;99917.03;5115523;28;20183;-74
2021/07/18 06:19:33;;;;;;;3.33;3.03;;;;;;;20.00;73.93;99922.38;5115473;28;20206;-74
2021/07/18 06:21:59;;;;;;;7.05;2.80;;;;;;;20.11;73.47;99911.31;5115517;28;20193;-74
2021/07/18 06:24:26;;;;;;;3.60;2.40;;;;;;;19.80;74.62;99918.75;5115677;28;20248;-74
2021/07/18 06:26:53;;;;;;;3.28;2.22;;;;;;;19.86;74.66;99917.34;5115402;28;20209;-72
2021/07/18 06:29:19;;;;;;;6.10;2.72;;;;;;;19.86;74.90;99912.72;5115174;28;20190;-74
2021/07/18 06:31:47;;;;;;;5.25;2.70;;;;;;;20.06;73.39;99915.47;5115640;28;20187;-75
2021/07/18 06:34:14;;;;;;;3.00;2.38;;;;;;;20.13;73.23;99911.19;5115503;28;20199;-75
2021/07/18 06:36:40;;;;;;;3.05;2.35;;;;;;;20.41;71.22;99920.38;5115604;28;20278;-74
2021/07/18 06:39:07;;;;;;;4.85;2.58;;;;;;;20.59;70.73;99920.53;5115240;28;20195;-74
2021/07/18 06:41:34;;;;;;;2.83;2.30;;;;;;;20.79;69.66;99918.66;5115392;28;20195;-74
2021/07/18 06:44:01;;;;;;;2.60;2.40;;;;;;;20.62;69.90;99920.25;5115792;28;20507;-74
2021/07/18 06:46:28;;;;;;;2.93;2.40;;;;;;;20.59;70.19;99921.41;5115380;28;20461;-75
2021/07/18 06:48:56;;;;;;;3.03;2.13;;;;;;;20.83;68.43;99925.56;5115818;28;20440;-75
2021/07/18 06:51:22;;;;;;;3.40;2.00;;;;;;;21.08;67.47;99926.78;5115385;28;20963;-74
2021/07/18 06:53:49;;;;;;;11.53;2.10;;;;;;;21.26;66.67;99931.50;5115117;28;20437;-74
2021/07/18 06:56:15;;;;;;;6.50;2.40;;;;;;;21.48;66.05;99931.13;5115012;28;20761;-74
2021/07/18 06:58:42;;;;;;;3.10;2.00;;;;;;;21.54;65.77;99929.66;5115027;28;20441;-74
2021/07/18 07:01:09;;;;;;;4.30;2.63;;;;;;;21.74;64.77;99934.03;5114816;28;20816;-74
2021/07/18 07:03:35;;;;;;;2.60;2.03;;;;;;;21.83;63.81;99924.88;5114612;28;20824;-74
2021/07/18 07:06:03;;;;;;;2.63;2.43;;;;;;;22.07;62.03;99928.91;5114736;28;20993;-74
2021/07/18 07:08:30;;;;;;;3.00;1.90;;;;;;;22.13;61.65;99932.91;5114952;28;20422;-75
2021/07/18 07:10:57;;;;;;;2.13;1.87;;;;;;;21.88;60.40;99929.91;5114588;28;20540;-75
2021/07/18 07:13:23;;;;;;;7.53;2.17;;;;;;;21.94;60.00;99922.94;5114930;28;20429;-74
2021/07/18 07:15:50;;;;;;;3.03;2.00;;;;;;;21.72;61.20;99924.22;5114816;28;20421;-74
2021/07/18 07:18:17;;;;;;;2.97;2.10;;;;;;;21.86;59.85;99918.22;5114744;28;20443;-75
2021/07/18 07:20:43;;;;;;;3.00;2.03;;;;;;;21.78;60.68;99935.44;5114297;28;20431;-75
2021/07/18 07:23:11;;;;;;;2.90;2.03;;;;;;;22.04;60.95;99934.69;5114611;28;20414;-74
2021/07/18 07:25:38;;;;;;;2.20;1.90;;;;;;;22.30;59.15;99936.72;5114200;28;20480;-74
2021/07/18 07:28:05;;;;;;;3.60;2.10;;;;;;;22.30;59.04;99933.97;5114214;28;20520;-74
2021/07/18 07:30:31;;;;;;;2.10;1.80;;;;;;;22.63;58.58;99935.13;5114647;28;20423;-74
2021/07/18 07:32:58;;;;;;;3.43;1.60;;;;;;;22.65;57.54;99928.44;5113960;28;20439;-74
2021/07/18 07:35:24;;;;;;;2.90;2.40;;;;;;;22.76;56.25;99930.09;5114479;28;20420;-74
2021/07/18 07:37:51;;;;;;;3.53;2.20;;;;;;;23.05;55.89;99917.97;5114573;28;20834;-74
2021/07/18 07:40:20;;;;;;;3.90;2.03;;;;;;;22.95;56.83;99920.81;5114182;28;20454;-74
2021/07/18 07:42:47;;;;;;;3.70;2.20;;;;;;;23.15;56.32;99928.84;5114225;28;20425;-75
2021/07/18 07:45:14;;;;;;;2.50;2.00;;;;;;;22.98;56.53;99925.97;5114186;28;20528;-74
2021/07/18 07:47:41;;;;;;;3.10;1.90;;;;;;;23.26;55.17;99931.31;5113789;28;20464;-75
2021/07/18 07:50:10;;;;;;;1.70;1.60;;;;;;;22.99;54.17;99919.47;5113904;28;20428;-74
2021/07/18 07:52:37;;;;;;;4.50;2.57;;;;;;;23.56;53.37;99921.66;5113781;28;20566;-75
2021/07/18 07:55:05;;;;;;;3.57;1.80;;;;;;;23.68;53.45;99916.75;5113775;28;20418;-75
2021/07/18 07:57:33;;;;;;;3.03;2.07;;;;;;;23.21;53.87;99918.06;5113977;28;20430;-74
2021/07/18 08:00:00;;;;;;;1.93;1.80;;;;;;;23.00;53.03;99920.34;5114291;28;20801;-74
2021/07/18 08:02:26;;;;;;;2.50;2.30;;;;;;;23.38;53.62;99912.66;5114004;28;20447;-73
2021/07/18 08:04:53;;;;;;;5.50;3.87;;;;;;;23.36;52.59;99917.44;5114247;28;20520;-74
2021/07/18 08:07:19;;;;;;;5.13;2.53;;;;;;;23.53;51.88;99911.84;5113692;28;20483;-75
2021/07/18 08:09:46;;;;;;;2.47;1.57;;;;;;;23.47;51.58;99901.56;5114002;28;20780;-74
2021/07/18 08:12:13;;;;;;;2.27;2.07;;;;;;;23.71;51.01;99914.50;5113735;28;20417;-73
2021/07/18 08:14:42;;;;;;;2.53;1.97;;;;;;;23.60;51.20;99906.56;5114017;28;20413;-74
2021/07/18 08:17:08;;;;;;;3.00;1.87;;;;;;;23.83;50.07;99908.72;5114086;28;20449;-73
2021/07/18 08:19:35;;;;;;;2.03;1.30;;;;;;;23.79;49.66;99910.97;5113936;28;20432;-73
2021/07/18 08:22:02;;;;;;;2.10;1.40;;;;;;;23.91;49.61;99904.13;5113824;28;20512;-74
2021/07/18 08:24:28;;;;;;;2.53;1.50;;;;;;;23.97;49.54;99910.84;5113495;28;20440;-74
2021/07/18 08:26:55;;;;;;;3.07;1.63;;;;;;;24.17;48.79;99903.13;5114007;28;20468;-74
2021/07/18 08:29:22;;;;;;;1.60;1.50;;;;;;;24.14;48.95;99904.34;5113618;28;20518;-74
2021/07/18 08:31:50;;;;;;;4.57;2.93;;;;;;;24.12;49.47;99911.03;5116138;28;20425;-74
2021/07/18 08:34:17;;;;;;;1.80;1.70;;;;;;;24.15;48.95;99913.47;5117426;28;20872;-74
2021/07/18 08:36:43;;;;;;;2.80;1.70;;;;;;;24.37;48.76;99902.81;5117737;28;20424;-74
2021/07/18 08:39:10;;;;;;;5.20;4.70;;;;;;;24.49;48.48;99913.38;5117686;28;20422;-74
2021/07/18 08:41:43;;;;;;;2.20;1.70;;;;;;;24.34;48.64;99898.53;5117284;28;20439;-74
2021/07/18 08:44:10;;;;;;;2.83;2.37;;;;;;;23.85;49.86;99906.69;5117910;28;20901;-73
2021/07/18 08:46:37;;;;;;;3.93;2.00;;;;;;;23.90;49.44;99904.28;5117474;28;20482;-74
2021/07/18 08:49:05;;;;;;;5.00;1.90;;;;;;;24.00;49.77;99909.66;5117674;28;20446;-75
2021/07/18 08:51:33;;;;;;;4.17;1.87;;;;;;;23.83;49.70;99908.72;5117837;28;20426;-73
2021/07/18 08:54:01;;;;;;;2.50;1.70;;;;;;;23.94;50.09;99906.53;5117386;28;20520;-74
2021/07/18 08:56:31;;;;;;;2.07;1.67;;;;;;;24.01;50.41;99906.72;5117458;28;20633;-75
2021/07/18 08:58:58;;;;;;;2.90;1.53;;;;;;;24.32;49.54;99901.44;5117649;28;20855;-75
2021/07/18 09:01:24;;;;;;;4.40;1.70;;;;;;;24.17;50.17;99905.03;5117245;28;20432;-74
2021/07/18 09:03:52;;;;;;;6.07;2.10;;;;;;;24.45;50.08;99905.59;5116948;28;20476;-74
2021/07/18 09:06:22;;;;;;;3.17;2.03;;;;;;;24.66;49.36;99910.59;5117401;28;20897;-74
2021/07/18 09:08:50;;;;;;;2.87;1.77;;;;;;;24.79;48.57;99901.81;5117234;28;20435;-74
2021/07/18 09:11:22;;;;;;;2.00;1.80;;;;;;;24.80;48.97;99900.78;5117305;28;20528;-75
2021/07/18 09:13:57;;;;;;;4.30;1.73;;;;;;;24.47;49.06;99904.41;5116983;28;20515;-74
2021/07/18 09:16:28;;;;;;;3.30;1.87;;;;;;;24.33;50.53;99896.78;5117010;28;20458;-75
2021/07/18 09:19:15;;;;;;;3.37;2.10;;;;;;;24.23;49.85;99894.19;5117068;28;20426;-74
2021/07/18 09:22:07;;;;;;;3.07;1.93;;;;;;;24.17;50.68;99897.63;5117225;28;20431;-75
2021/07/18 09:24:36;;;;;;;3.00;1.90;;;;;;;24.76;49.82;99887.38;5117469;28;20429;-74
2021/07/18 09:27:08;;;;;;;2.40;1.67;;;;;;;25.09;49.29;99887.28;5117212;28;20457;-73
2021/07/18 09:29:36;;;;;;;4.97;2.00;;;;;;;25.34;49.11;99885.34;5117287;28;20433;-75
2021/07/18 09:32:05;;;;;;;2.27;1.90;;;;;;;25.47;49.00;99887.53;5116844;28;20436;-74
2021/07/18 09:34:36;;;;;;;3.13;2.10;;;;;;;25.22;48.44;99885.94;5116559;28;20447;-74
2021/07/18 09:37:14;;;;;;;2.27;1.40;;;;;;;25.29;48.67;99885.03;5116709;28;20427;-74
2021/07/18 09:39:47;;;;;;;2.43;1.90;;;;;;;24.66;49.05;99885.81;5117402;28;20413;-76
2021/07/18 09:42:25;;;;;;;4.37;2.00;;;;;;;24.96;48.64;99884.22;5116499;28;20421;-73
2021/07/18 09:44:52;;;;;;;5.37;1.80;;;;;;;25.08;48.15;99877.31;5116351;28;20520;-74
2021/07/18 09:47:18;;;;;;;2.73;1.70;;;;;;;25.12;48.61;99875.94;5116462;28;20480;-74
2021/07/18 09:49:45;;;;;;;2.63;1.47;;;;;;;25.20;48.29;99877.81;5117140;28;20777;-73
2021/07/18 09:52:15;;;;;;;2.63;1.77;;;;;;;25.20;47.59;99874.22;5116540;28;20417;-75
2021/07/18 09:54:41;;;;;;;2.17;1.30;;;;;;;25.22;46.32;99878.50;5115201;28;20461;-75
2021/07/18 09:57:09;;;;;;;2.03;1.30;;;;;;;25.09;46.44;99879.03;5116471;28;20467;-75
2021/07/18 09:59:36;;;;;;;3.40;1.50;;;;;;;25.03;46.18;99876.97;5117320;28;20421;-74
2021/07/18 10:02:04;;;;;;;4.03;1.50;;;;;;;25.14;46.69;99879.34;5115947;28;20533;-73
2021/07/18 10:04:39;;;;;;;3.23;1.60;;;;;;;25.41;45.54;99877.22;5115750;28;20465;-74
2021/07/18 10:07:06;;;;;;;1.97;1.40;;;;;;;25.27;45.50;99880.72;5116092;28;20460;-73
2021/07/18 10:09:34;;;;;;;4.70;1.90;;;;;;;25.06;45.78;99870.28;5115801;28;20428;-74
2021/07/18 10:12:01;;;;;;;2.23;1.40;;;;;;;25.18;45.71;99871.59;5116053;28;20536;-73
2021/07/18 10:14:28;;;;;;;2.50;1.30;;;;;;;25.29;46.17;99870.41;5115414;28;20433;-73
2021/07/18 10:16:55;;;;;;;2.67;2.00;;;;;;;25.74;45.68;99868.81;5116186;28;20935;-73
2021/07/18 10:19:22;;;;;;;2.07;1.10;;;;;;;25.82;44.98;99854.94;5115703;28;20436;-74
2021/07/18 10:21:50;;;;;;;1.63;0.90;;;;;;;25.59;45.60;99858.53;5115818;28;20452;-75
2021/07/18 10:24:18;;;;;;;1.73;1.37;;;;;;;25.82;45.48;99862.38;5115202;28;20923;-73
2021/07/18 10:26:48;;;;;;;2.13;1.33;;;;;;;25.64;46.27;99857.97;5114886;28;20477;-73
2021/07/18 10:29:15;;;;;;;2.00;1.40;;;;;;;26.04;44.98;99864.34;5115563;28;20516;-75
2021/07/18 10:31:46;;;;;;;1.80;1.57;;;;;;;26.08;44.98;99851.03;5116005;28;20759;-74
2021/07/18 10:34:14;;;;;;;3.23;1.70;;;;;;;25.66;45.59;99855.06;5115463;28;20432;-72
2021/07/18 10:36:40;;;;;;;3.20;1.27;;;;;;;25.97;45.12;99858.69;5115400;28;20940;-73
2021/07/18 10:39:27;;;;;;;5.40;2.47;;;;;;;26.34;44.62;99851.50;5115011;28;20787;-73
2021/07/18 10:41:55;;;;;;;5.33;1.77;;;;;;;26.56;44.56;99840.66;5115287;28;20425;-72
2021/07/18 10:44:22;;;;;;;1.70;1.60;;;;;;;26.44;44.97;99851.28;5115194;28;20516;-73
2021/07/18 10:46:54;;;;;;;1.97;1.23;;;;;;;26.03;45.12;99851.59;5115151;28;20493;-73
2021/07/18 10:49:49;;;;;;;3.93;1.43;;;;;;;26.10;45.49;99840.69;5115134;28;20429;-74
2021/07/18 10:52:15;;;;;;;1.53;1.17;;;;;;;26.21;45.32;99843.00;5114819;28;20468;-73
2021/07/18 10:54:43;;;;;;;2.33;1.20;;;;;;;25.99;45.67;99834.53;5113922;28;20429;-73
2021/07/18 10:57:26;;;;;;;1.73;1.20;;;;;;;26.28;45.50;99837.63;5115040;28;20911;-73
2021/07/18 10:59:53;;;;;;;2.73;1.50;;;;;;;26.51;45.20;99832.06;5115322;28;20809;-74
2021/07/18 11:02:21;;;;;;;3.60;1.70;;;;;;;26.80;44.53;99831.28;5114715;28;20555;-72
2021/07/18 11:04:49;;;;;;;4.50;1.17;;;;;;;26.78;44.73;99825.94;5114913;28;20444;-73
2021/07/18 11:07:42;;;;;;;1.70;1.27;;;;;;;26.27;45.41;99816.56;5115299;28;21006;-74
2021/07/18 11:10:19;;;;;;;4.40;1.70;;;;;;;26.36;45.18;99820.97;5114775;28;20895;-72
2021/07/18 11:12:49;;;;;;;2.87;1.70;;;;;;;26.36;45.28;99830.09;5114734;28;20437;-72
2021/07/18 11:15:30;;;;;;;3.20;2.00;;;;;;;26.62;45.24;99821.44;5114942;28;20421;-74
2021/07/18 11:18:02;;;;;;;3.77;1.40;;;;;;;26.42;45.62;99815.56;5114461;28;20815;-74
2021/07/18 11:20:43;;;;;;;3.47;1.53;;;;;;;26.81;45.45;99819.19;5114161;28;20421;-75
2021/07/18 11:23:10;;;;;;;6.20;1.53;;;;;;;26.83;44.89;99817.09;5114465;28;20906;-74
2021/07/18 11:25:51;;;;;;;1.93;1.20;;;;;;;27.02;44.61;99818.41;5114484;28;20429;-74
2021/07/18 11:28:39;;;;;;;3.47;1.67;;;;;;;26.94;43.24;99813.00;5113812;28;20461;-74
2021/07/18 11:31:26;;;;;;;2.50;1.50;;;;;;;27.17;43.16;99810.97;5114222;28;20445;-74